Hlavní strana
METAR-TAF:

METAR-TAF

Letiště :

Forlì, Itálie

zeměpisná šířka: 44-12N, zeměpisná délka: 012-04E, výška: 27 m

Aktuální stav počasí

Zpráva byla vytvořena před 16 hodinami a 10 minutami, v 15:50 UTC
Východoseverovýchodní vítr 4 kt
Teplota 28°C
Vlhkost vzduchu 51%
Tlak 1013 hPa
Viditelnost 10 km a více
Skoro jasno ve výšce 2500 ft

METAR: LIPK 251550Z 06004KT 9999 FEW025 28/17 Q1013

Čas: 10:00 (08:00 UTC)


TAF: chybějící

Stav a předpovědi počasí z více než 4 000 letišť (zprávy METAR a TAF).

Červené a žluté tečky na mapě představují dostupné meteorologické stanice.

Když kurzor umístíte na tečku, zobrazí se název stanice.

Pak kliknutím zobrazíte stav a předpověď počasí.

Chcete-li změnit mapu, kliknutím na zelené tlačítko se znaménkem +mapu přiblížíte, kliknutím na zelené tlačítko se znaménkem – mapu oddálíte a kliknutím na zelené šipky přejdete na sousední mapy.


METAR-TAF: